Time;durP1;ratioP1;P1;durP2;ratioP2;P2;SDS_P1;SDS_P2;PMS_P1;PMS_P2;Temp;Humidity;BMP_temperature;BMP_pressure;BME280_temperature;BME280_humidity;BME280_pressure;Samples;Min_cycle;Max_cycle;Signal;HPM_P1;HPM_P2
2024/03/14 00:01:27;;;;;;;;;;;22.50;40.70;;;;;;5072042;28;19928;-65
2024/03/14 00:03:54;;;;;;;;;;;22.50;40.70;;;;;;5071341;28;20357;-65
2024/03/14 00:06:21;;;;;;;;;;;22.50;40.70;;;;;;5072691;28;19972;-65
2024/03/14 00:08:48;;;;;;;;;;;22.50;40.70;;;;;;5073111;28;20321;-65
2024/03/14 00:11:17;;;;;;;;;;;22.50;40.70;;;;;;5072712;28;19924;-65
2024/03/14 00:13:45;;;;;;;;;;;22.50;40.70;;;;;;5072896;28;19932;-65
2024/03/14 00:16:13;;;;;;;;;;;22.50;40.70;;;;;;5072437;28;19929;-66
2024/03/14 00:18:40;;;;;;;;;;;22.50;40.70;;;;;;5072606;28;20040;-65
2024/03/14 00:21:09;;;;;;;;;;;22.50;40.70;;;;;;5072342;28;19931;-65
2024/03/14 00:23:37;;;;;;;;;;;22.50;40.80;;;;;;5072525;28;19925;-65
2024/03/14 00:26:08;;;;;;;;;;;22.40;40.70;;;;;;5071446;28;20043;-65
2024/03/14 00:28:36;;;;;;;;;;;22.40;40.80;;;;;;5074854;28;20041;-65
2024/03/14 00:31:04;;;;;;;;;;;22.40;40.80;;;;;;5075335;28;20290;-65
2024/03/14 00:33:31;;;;;;;;;;;22.40;40.80;;;;;;5076397;28;20293;-65
2024/03/14 00:35:58;;;;;;;;;;;22.40;40.80;;;;;;5076080;28;19925;-65
2024/03/14 00:38:25;;;;;;;;;;;22.40;40.80;;;;;;5074514;28;19925;-65
2024/03/14 00:40:52;;;;;;;;;;;22.40;40.80;;;;;;5076335;28;20368;-65
2024/03/14 00:43:19;;;;;;;;;;;22.40;40.80;;;;;;5074608;28;19931;-65
2024/03/14 00:45:46;;;;;;;;;;;22.40;41.30;;;;;;5076289;28;19924;-65
2024/03/14 00:48:13;;;;;;;;;;;22.40;40.80;;;;;;5075933;28;19928;-65
2024/03/14 00:50:41;;;;;;;;;;;22.40;40.80;;;;;;5075916;28;19981;-65
2024/03/14 00:53:08;;;;;;;;;;;22.40;40.80;;;;;;5075945;28;20384;-65
2024/03/14 00:55:35;;;;;;;;;;;22.40;40.80;;;;;;5075503;28;20377;-65
2024/03/14 00:58:02;;;;;;;;;;;22.40;40.70;;;;;;5075463;28;19924;-65
2024/03/14 01:00:29;;;;;;;;;;;22.40;40.70;;;;;;5075586;28;19950;-65
2024/03/14 01:02:57;;;;;;;;;;;22.50;40.70;;;;;;5075923;28;19947;-65
2024/03/14 01:05:24;;;;;;;;;;;22.50;40.70;;;;;;5076097;28;19929;-65
2024/03/14 01:07:51;;;;;;;;;;;22.40;40.60;;;;;;5075618;28;19925;-65
2024/03/14 01:10:18;;;;;;;;;;;22.40;40.60;;;;;;5075165;28;19951;-66
2024/03/14 01:12:46;;;;;;;;;;;22.40;40.60;;;;;;5075627;28;19924;-65
2024/03/14 01:15:15;;;;;;;;;;;22.40;40.70;;;;;;5075306;28;20404;-65
2024/03/14 01:17:43;;;;;;;;;;;22.40;40.60;;;;;;5075294;28;19979;-65
2024/03/14 01:20:10;;;;;;;;;;;22.40;40.70;;;;;;5075131;28;19933;-65
2024/03/14 01:22:38;;;;;;;;;;;22.40;40.70;;;;;;5075036;28;19929;-65
2024/03/14 01:25:05;;;;;;;;;;;22.40;40.70;;;;;;5075128;28;19931;-65
2024/03/14 01:27:33;;;;;;;;;;;22.40;40.70;;;;;;5075234;28;19924;-65
2024/03/14 01:30:00;;;;;;;;;;;22.40;40.70;;;;;;5075195;28;20027;-65
2024/03/14 01:32:26;;;;;;;;;;;22.40;40.70;;;;;;5074902;28;19924;-66
2024/03/14 01:34:54;;;;;;;;;;;22.40;40.70;;;;;;5074876;28;19924;-65
2024/03/14 01:37:22;;;;;;;;;;;22.40;40.70;;;;;;5075165;28;19971;-65
2024/03/14 01:39:50;;;;;;;;;;;22.40;40.70;;;;;;5075201;28;19968;-65
2024/03/14 01:42:18;;;;;;;;;;;22.30;40.70;;;;;;5075091;28;20019;-65
2024/03/14 01:45:01;;;;;;;;;;;22.30;40.70;;;;;;5074263;28;19924;-65
2024/03/14 01:47:28;;;;;;;;;;;22.30;40.60;;;;;;5074706;28;19925;-65
2024/03/14 01:49:55;;;;;;;;;;;22.40;40.70;;;;;;5074603;28;19979;-65
2024/03/14 01:52:24;;;;;;;;;;;22.40;40.70;;;;;;5074628;28;19924;-65
2024/03/14 01:54:51;;;;;;;;;;;22.30;40.60;;;;;;5073486;28;19928;-65
2024/03/14 01:57:19;;;;;;;;;;;22.40;40.70;;;;;;5074660;28;20027;-65
2024/03/14 01:59:50;;;;;;;;;;;22.40;40.70;;;;;;5074780;28;20267;-65
2024/03/14 02:02:17;;;;;;;;;;;22.40;40.70;;;;;;5074150;28;19931;-65
2024/03/14 02:04:56;;;;;;;;;;;22.40;40.70;;;;;;5073393;28;19924;-65
2024/03/14 02:07:26;;;;;;;;;;;22.40;40.60;;;;;;5074370;28;20336;-65
2024/03/14 02:09:52;;;;;;;;;;;22.40;40.60;;;;;;5074562;28;19970;-65
2024/03/14 02:12:21;;;;;;;;;;;22.40;40.60;;;;;;5074251;28;19925;-65
2024/03/14 02:14:48;;;;;;;;;;;22.40;40.60;;;;;;5074611;28;19978;-65
2024/03/14 02:17:15;;;;;;;;;;;22.40;40.50;;;;;;5073888;28;19931;-65
2024/03/14 02:19:42;;;;;;;;;;;22.40;40.50;;;;;;5073980;28;19928;-65
2024/03/14 02:22:16;;;;;;;;;;;22.40;40.50;;;;;;5074312;28;19924;-65
2024/03/14 02:24:43;;;;;;;;;;;22.40;40.50;;;;;;5073963;28;19925;-65
2024/03/14 02:27:10;;;;;;;;;;;22.40;40.40;;;;;;5074194;28;19982;-65
2024/03/14 02:29:37;;;;;;;;;;;22.40;40.50;;;;;;5074138;28;20255;-66
2024/03/14 02:32:04;;;;;;;;;;;22.40;40.40;;;;;;5073836;28;20366;-65
2024/03/14 02:34:31;;;;;;;;;;;22.40;40.50;;;;;;5073409;28;19931;-67
2024/03/14 02:36:58;;;;;;;;;;;22.40;40.50;;;;;;5074064;28;20362;-65
2024/03/14 02:39:26;;;;;;;;;;;22.40;40.50;;;;;;5074036;28;19932;-65
2024/03/14 02:41:54;;;;;;;;;;;22.40;40.50;;;;;;5073625;28;19925;-65
2024/03/14 02:44:21;;;;;;;;;;;22.40;40.40;;;;;;5073625;28;19958;-65
2024/03/14 02:46:51;;;;;;;;;;;22.40;40.50;;;;;;5073595;28;19924;-65
2024/03/14 02:49:20;;;;;;;;;;;22.40;40.50;;;;;;5073876;28;19971;-65
2024/03/14 02:51:47;;;;;;;;;;;22.40;40.50;;;;;;5073248;28;19931;-65
2024/03/14 02:54:15;;;;;;;;;;;22.40;40.50;;;;;;5073707;28;19928;-65
2024/03/14 02:56:43;;;;;;;;;;;22.40;40.50;;;;;;5073496;28;20282;-66
2024/03/14 02:59:10;;;;;;;;;;;22.30;40.40;;;;;;5071686;28;19928;-65
2024/03/14 03:01:38;;;;;;;;;;;22.40;40.50;;;;;;5072977;28;19933;-66
2024/03/14 03:04:05;;;;;;;;;;;22.40;40.50;;;;;;5073036;28;20286;-65
2024/03/14 03:06:33;;;;;;;;;;;22.40;40.50;;;;;;5073104;28;19950;-65
2024/03/14 03:09:00;;;;;;;;;;;22.40;40.50;;;;;;5073274;28;19928;-65
2024/03/14 03:11:30;;;;;;;;;;;22.40;40.50;;;;;;5073312;28;19928;-65
2024/03/14 03:13:57;;;;;;;;;;;22.40;40.50;;;;;;5072454;28;20300;-65
2024/03/14 03:16:24;;;;;;;;;;;22.40;40.50;;;;;;5072847;28;19925;-65
2024/03/14 03:18:51;;;;;;;;;;;22.40;40.50;;;;;;5073431;28;19925;-65
2024/03/14 03:21:20;;;;;;;;;;;22.40;40.50;;;;;;5073123;28;19924;-65
2024/03/14 03:23:48;;;;;;;;;;;22.40;40.40;;;;;;5072997;28;20011;-66
2024/03/14 03:26:15;;;;;;;;;;;22.40;40.50;;;;;;5073449;28;19924;-65
2024/03/14 03:28:42;;;;;;;;;;;22.40;40.40;;;;;;5073512;28;19924;-66
2024/03/14 03:31:09;;;;;;;;;;;22.40;40.40;;;;;;5073101;28;20492;-65
2024/03/14 03:33:36;;;;;;;;;;;22.40;40.40;;;;;;5073093;28;19980;-65
2024/03/14 03:36:04;;;;;;;;;;;22.40;40.30;;;;;;5073108;28;19924;-65
2024/03/14 03:38:32;;;;;;;;;;;22.40;40.30;;;;;;5073223;28;19924;-65
2024/03/14 03:41:01;;;;;;;;;;;22.40;40.30;;;;;;5072563;28;19924;-65
2024/03/14 03:43:28;;;;;;;;;;;22.40;40.30;;;;;;5073215;28;19930;-65
2024/03/14 03:45:57;;;;;;;;;;;22.40;40.30;;;;;;5072923;28;20373;-65
2024/03/14 03:48:24;;;;;;;;;;;22.40;40.30;;;;;;5073143;28;19947;-65
2024/03/14 03:50:51;;;;;;;;;;;22.40;40.30;;;;;;5072918;28;20019;-66
2024/03/14 03:53:19;;;;;;;;;;;22.40;40.30;;;;;;5072996;28;19928;-65
2024/03/14 03:55:46;;;;;;;;;;;22.40;40.30;;;;;;5073319;28;20019;-66
2024/03/14 03:58:13;;;;;;;;;;;22.40;40.30;;;;;;5071349;28;19989;-65
2024/03/14 04:00:46;;;;;;;;;;;22.40;40.30;;;;;;5072953;28;19925;-65
2024/03/14 04:03:14;;;;;;;;;;;22.40;40.30;;;;;;5073175;28;19951;-65
2024/03/14 04:05:42;;;;;;;;;;;22.40;40.30;;;;;;5059127;28;19928;-65
2024/03/14 04:08:09;;;;;;;;;;;22.40;40.30;;;;;;5075885;28;19939;-65
2024/03/14 04:10:36;;;;;;;;;;;22.40;40.30;;;;;;5076599;28;19983;-65
2024/03/14 04:13:04;;;;;;;;;;;22.40;40.30;;;;;;5076132;28;19924;-66
2024/03/14 04:15:33;;;;;;;;;;;22.30;40.40;;;;;;5076524;28;19928;-65
2024/03/14 04:18:04;;;;;;;;;;;22.30;40.30;;;;;;5076403;28;19928;-66
2024/03/14 04:20:33;;;;;;;;;;;22.30;40.30;;;;;;5076356;28;19925;-65
2024/03/14 04:23:00;;;;;;;;;;;22.30;40.30;;;;;;5075738;28;19933;-66
2024/03/14 04:25:27;;;;;;;;;;;22.30;40.90;;;;;;5076222;28;19924;-65
2024/03/14 04:27:54;;;;;;;;;;;22.30;40.40;;;;;;5076196;28;19925;-65
2024/03/14 04:30:23;;;;;;;;;;;22.30;40.40;;;;;;5076332;28;19929;-65
2024/03/14 04:32:50;;;;;;;;;;;22.30;40.40;;;;;;5076150;28;19975;-67
2024/03/14 04:35:20;;;;;;;;;;;22.30;40.40;;;;;;5073668;28;19931;-66
2024/03/14 04:37:49;;;;;;;;;;;22.30;40.40;;;;;;5075138;28;19978;-65
2024/03/14 04:40:19;;;;;;;;;;;22.30;40.00;;;;;;5076038;28;19924;-66
2024/03/14 04:42:51;;;;;;;;;;;22.40;39.80;;;;;;5075857;28;20373;-65
2024/03/14 04:45:21;;;;;;;;;;;22.40;39.50;;;;;;5075885;28;20374;-65
2024/03/14 04:47:48;;;;;;;;;;;22.40;39.30;;;;;;5075508;28;19931;-65
2024/03/14 04:50:18;;;;;;;;;;;22.40;39.20;;;;;;5075752;28;20386;-65
2024/03/14 04:52:46;;;;;;;;;;;22.40;39.00;;;;;;5075939;28;19928;-65
2024/03/14 04:55:13;;;;;;;;;;;22.50;39.00;;;;;;5074218;28;19924;-65
2024/03/14 04:57:41;;;;;;;;;;;22.50;38.90;;;;;;5075505;28;19931;-65
2024/03/14 05:00:20;;;;;;;;;;;22.50;38.90;;;;;;5075983;28;19979;-66
2024/03/14 05:02:51;;;;;;;;;;;22.50;38.80;;;;;;5075522;28;19950;-65
2024/03/14 05:05:20;;;;;;;;;;;22.50;38.70;;;;;;5075782;28;19932;-65
2024/03/14 05:07:49;;;;;;;;;;;22.50;38.60;;;;;;5075803;28;19924;-65
2024/03/14 05:10:19;;;;;;;;;;;22.50;38.50;;;;;;5074737;28;20321;-65
2024/03/14 05:12:48;;;;;;;;;;;22.50;38.50;;;;;;5075303;28;20370;-66
2024/03/14 05:15:15;;;;;;;;;;;22.50;38.40;;;;;;5075000;28;19928;-65
2024/03/14 05:17:44;;;;;;;;;;;22.50;38.40;;;;;;5075538;28;20397;-65
2024/03/14 05:20:13;;;;;;;;;;;22.50;38.30;;;;;;5074795;28;19970;-66
2024/03/14 05:22:42;;;;;;;;;;;22.50;38.30;;;;;;5075056;28;19984;-65
2024/03/14 05:25:11;;;;;;;;;;;22.50;38.20;;;;;;5062147;28;19982;-65
2024/03/14 05:27:39;;;;;;;;;;;22.50;38.20;;;;;;5055188;28;19924;-65
2024/03/14 05:30:06;;;;;;;;;;;22.40;38.10;;;;;;5055010;28;19970;-66
2024/03/14 05:32:34;;;;;;;;;;;22.50;38.10;;;;;;5054652;28;20431;-65
2024/03/14 05:35:02;;;;;;;;;;;22.50;38.10;;;;;;5054918;28;20370;-66
2024/03/14 05:37:29;;;;;;;;;;;22.50;38.10;;;;;;5054709;28;19932;-65
2024/03/14 05:39:56;;;;;;;;;;;22.50;38.10;;;;;;5056918;28;20381;-65
2024/03/14 05:42:24;;;;;;;;;;;22.50;38.00;;;;;;5072532;28;20459;-65
2024/03/14 05:44:55;;;;;;;;;;;22.50;38.00;;;;;;5069507;28;19928;-65
2024/03/14 05:47:24;;;;;;;;;;;22.50;38.00;;;;;;5065533;28;19931;-65
2024/03/14 05:49:51;;;;;;;;;;;22.50;38.00;;;;;;5074368;28;19982;-65
2024/03/14 05:52:18;;;;;;;;;;;22.50;37.90;;;;;;5074693;28;19925;-65
2024/03/14 05:54:46;;;;;;;;;;;22.50;37.80;;;;;;5074263;28;19924;-65
2024/03/14 05:57:14;;;;;;;;;;;22.60;37.80;;;;;;5074397;28;20297;-66
2024/03/14 05:59:42;;;;;;;;;;;22.60;37.80;;;;;;5074255;28;19929;-65
2024/03/14 06:02:09;;;;;;;;;;;22.60;37.70;;;;;;5073558;28;20293;-65
2024/03/14 06:04:36;;;;;;;;;;;22.60;37.60;;;;;;5074092;28;19924;-65
2024/03/14 06:07:03;;;;;;;;;;;22.60;37.50;;;;;;5073640;28;19924;-65
2024/03/14 06:09:41;;;;;;;;;;;22.60;37.50;;;;;;5073598;28;20046;-65
2024/03/14 06:12:09;;;;;;;;;;;22.60;37.50;;;;;;5074118;28;19928;-65
2024/03/14 06:14:39;;;;;;;;;;;22.70;37.50;;;;;;5073647;28;19982;-65
2024/03/14 06:17:06;;;;;;;;;;;22.70;37.40;;;;;;5072789;28;19978;-64
2024/03/14 06:19:33;;;;;;;;;;;22.70;37.40;;;;;;5072572;28;20268;-65
2024/03/14 06:22:00;;;;;;;;;;;22.70;37.40;;;;;;5072966;28;19978;-64
2024/03/14 06:24:28;;;;;;;;;;;22.70;37.50;;;;;;5070643;28;19951;-63
2024/03/14 06:26:55;;;;;;;;;;;22.70;37.60;;;;;;5071502;28;19986;-63
2024/03/14 06:29:22;;;;;;;;;;;22.70;37.60;;;;;;5073694;28;19928;-64
2024/03/14 06:31:50;;;;;;;;;;;22.80;37.70;;;;;;5063044;28;19944;-64
2024/03/14 06:34:17;;;;;;;;;;;22.80;37.80;;;;;;5061758;28;19932;-64
2024/03/14 06:36:44;;;;;;;;;;;22.80;37.70;;;;;;5064983;28;19970;-67
2024/03/14 06:39:12;;;;;;;;;;;22.90;37.90;;;;;;5072727;28;19928;-65
2024/03/14 06:41:39;;;;;;;;;;;22.90;38.10;;;;;;5061238;28;20410;-64
2024/03/14 06:44:07;;;;;;;;;;;23.00;38.00;;;;;;5062155;28;20305;-63
2024/03/14 06:46:36;;;;;;;;;;;23.00;37.80;;;;;;5067053;28;19928;-62
2024/03/14 06:49:04;;;;;;;;;;;23.10;37.70;;;;;;5064420;28;19925;-64
2024/03/14 06:51:31;;;;;;;;;;;23.20;37.60;;;;;;5067163;28;19930;-64
2024/03/14 06:53:58;;;;;;;;;;;23.30;37.50;;;;;;5062806;28;19925;-64
2024/03/14 06:56:30;;;;;;;;;;;23.40;37.40;;;;;;5064062;28;19924;-63
2024/03/14 06:58:57;;;;;;;;;;;23.40;37.20;;;;;;5062049;28;19928;-64
2024/03/14 07:01:24;;;;;;;;;;;23.50;37.00;;;;;;5064296;28;19925;-64
2024/03/14 07:03:51;;;;;;;;;;;23.60;36.90;;;;;;5059822;28;19925;-64
2024/03/14 07:06:23;;;;;;;;;;;23.70;36.70;;;;;;5061879;28;20374;-65
2024/03/14 07:08:56;;;;;;;;;;;23.80;36.90;;;;;;5067555;28;19924;-64
2024/03/14 07:11:25;;;;;;;;;;;23.90;36.60;;;;;;5059598;28;19928;-65
2024/03/14 07:13:54;;;;;;;;;;;24.00;36.50;;;;;;5064205;28;19929;-62
2024/03/14 07:16:25;;;;;;;;;;;24.00;36.30;;;;;;5062021;28;20355;-61
2024/03/14 07:18:56;;;;;;;;;;;24.10;36.40;;;;;;5062868;28;19928;-62
2024/03/14 07:21:23;;;;;;;;;;;24.20;36.40;;;;;;5062575;28;20382;-62
2024/03/14 07:23:50;;;;;;;;;;;24.30;36.30;;;;;;5059423;28;20008;-62
2024/03/14 07:26:22;;;;;;;;;;;24.40;36.10;;;;;;5063819;28;19950;-61
2024/03/14 07:28:55;;;;;;;;;;;24.50;36.10;;;;;;5060713;28;20026;-63
2024/03/14 07:31:23;;;;;;;;;;;24.50;36.00;;;;;;5062487;28;19928;-63
2024/03/14 07:33:52;;;;;;;;;;;24.60;36.00;;;;;;5065417;28;20676;-64
2024/03/14 07:36:20;;;;;;;;;;;24.60;35.90;;;;;;5062497;28;20007;-68
2024/03/14 07:38:50;;;;;;;;;;;24.70;36.20;;;;;;5066903;28;19978;-62
2024/03/14 07:41:20;;;;;;;;;;;24.70;36.40;;;;;;5069704;28;19924;-64
2024/03/14 07:43:48;;;;;;;;;;;24.80;36.20;;;;;;5068108;28;19932;-64
2024/03/14 07:46:30;;;;;;;;;;;24.90;36.00;;;;;;5063810;28;19931;-63
2024/03/14 07:48:57;;;;;;;;;;;24.90;36.00;;;;;;5068280;28;20404;-62
2024/03/14 07:51:25;;;;;;;;;;;25.00;35.80;;;;;;5063390;28;19925;-63
2024/03/14 07:53:52;;;;;;;;;;;25.00;35.40;;;;;;5066882;28;20448;-61
2024/03/14 07:56:21;;;;;;;;;;;25.10;35.40;;;;;;5064033;28;19924;-63
2024/03/14 07:58:48;;;;;;;;;;;25.10;35.30;;;;;;5062892;28;19955;-63
2024/03/14 08:01:15;;;;;;;;;;;25.20;35.20;;;;;;5064833;28;20313;-63
2024/03/14 08:03:43;;;;;;;;;;;25.30;35.30;;;;;;5064445;28;19939;-64
2024/03/14 08:06:15;;;;;;;;;;;25.40;35.30;;;;;;5069547;28;20024;-64
2024/03/14 08:08:42;;;;;;;;;;;25.40;34.90;;;;;;5066925;28;20031;-65
2024/03/14 08:11:11;;;;;;;;;;;25.50;34.80;;;;;;5065701;28;20444;-63
2024/03/14 08:13:42;;;;;;;;;;;25.50;34.60;;;;;;5069636;28;20013;-64
2024/03/14 08:16:14;;;;;;;;;;;25.60;34.70;;;;;;5063562;28;19932;-68
2024/03/14 08:18:42;;;;;;;;;;;25.70;34.70;;;;;;5061109;28;20475;-65
2024/03/14 08:21:12;;;;;;;;;;;25.70;34.70;;;;;;5066669;28;19929;-67
2024/03/14 08:23:44;;;;;;;;;;;25.80;34.40;;;;;;5059565;28;20385;-65
2024/03/14 08:26:12;;;;;;;;;;;25.80;34.40;;;;;;5064628;28;20380;-64
2024/03/14 08:28:41;;;;;;;;;;;25.90;34.20;;;;;;5062250;28;19979;-64
2024/03/14 08:31:15;;;;;;;;;;;26.00;34.50;;;;;;5058387;28;20019;-66
2024/03/14 08:33:45;;;;;;;;;;;26.00;34.30;;;;;;5066821;28;19924;-63
2024/03/14 08:36:15;;;;;;;;;;;26.10;35.20;;;;;;5064596;28;19991;-63
2024/03/14 08:38:44;;;;;;;;;;;26.10;35.50;;;;;;5068762;28;19932;-63
2024/03/14 08:41:13;;;;;;;;;;;26.10;36.10;;;;;;5061572;28;20424;-63
2024/03/14 08:43:42;;;;;;;;;;;26.20;36.30;;;;;;5067646;28;19924;-61
2024/03/14 08:46:09;;;;;;;;;;;26.20;35.90;;;;;;5064160;28;20031;-60
2024/03/14 08:48:36;;;;;;;;;;;26.30;35.70;;;;;;5067293;28;20026;-60
2024/03/14 08:51:04;;;;;;;;;;;26.30;35.10;;;;;;5074549;28;19959;-59
2024/03/14 08:54:07;;;;;;;;;;;26.30;34.50;;;;;;5066548;28;19925;-60
2024/03/14 08:56:19;;;;;;;;;;;26.30;34.10;;;;;;5062589;28;19925;-62
2024/03/14 08:58:56;;;;;;;;;;;26.40;34.30;;;;;;5068415;28;20003;-60
2024/03/14 09:01:24;;;;;;;;;;;26.40;33.80;;;;;;5068764;28;19951;-61
2024/03/14 09:03:51;;;;;;;;;;;26.40;33.90;;;;;;5064091;28;19925;-60
2024/03/14 09:06:19;;;;;;;;;;;26.40;34.50;;;;;;5065290;28;20443;-60
2024/03/14 09:08:46;;;;;;;;;;;26.50;34.30;;;;;;5066315;28;19924;-61
2024/03/14 09:11:19;;;;;;;;;;;26.50;33.30;;;;;;5062080;28;19929;-60
2024/03/14 09:13:46;;;;;;;;;;;26.60;33.50;;;;;;5064053;28;19924;-60
2024/03/14 09:16:13;;;;;;;;;;;26.60;33.70;;;;;;5057242;28;20421;-60
2024/03/14 09:18:40;;;;;;;;;;;26.70;33.20;;;;;;5061271;28;20390;-61
2024/03/14 09:21:09;;;;;;;;;;;26.70;33.20;;;;;;5057973;28;20373;-60
2024/03/14 09:23:39;;;;;;;;;;;26.70;33.30;;;;;;5067205;28;20352;-60
2024/03/14 09:26:09;;;;;;;;;;;26.80;32.90;;;;;;5064799;28;20390;-63
2024/03/14 09:28:38;;;;;;;;;;;26.80;32.80;;;;;;5066315;28;19951;-60
2024/03/14 09:31:08;;;;;;;;;;;26.90;33.00;;;;;;5063413;28;19925;-61
2024/03/14 09:33:37;;;;;;;;;;;26.90;32.80;;;;;;5061230;28;19932;-61
2024/03/14 09:36:09;;;;;;;;;;;26.90;32.40;;;;;;5064432;28;19932;-60
2024/03/14 09:38:36;;;;;;;;;;;26.90;32.30;;;;;;5062534;28;19925;-59
2024/03/14 09:41:03;;;;;;;;;;;26.90;32.00;;;;;;5061988;28;19959;-60
2024/03/14 09:43:44;;;;;;;;;;;26.80;32.00;;;;;;5069074;28;20571;-59
2024/03/14 09:46:12;;;;;;;;;;;26.80;31.90;;;;;;5066343;28;20329;-60
2024/03/14 09:48:40;;;;;;;;;;;26.80;32.00;;;;;;5061261;28;19990;-60
2024/03/14 09:51:09;;;;;;;;;;;26.80;32.00;;;;;;5065778;28;19928;-59
2024/03/14 09:53:37;;;;;;;;;;;26.80;32.00;;;;;;5066060;28;21190;-58
2024/03/14 09:56:04;;;;;;;;;;;26.80;32.00;;;;;;5063909;28;20426;-60
2024/03/14 09:58:31;;;;;;;;;;;26.70;32.20;;;;;;5064027;28;19932;-61
2024/03/14 10:00:59;;;;;;;;;;;26.70;32.30;;;;;;5061130;28;19931;-59
2024/03/14 10:03:28;;;;;;;;;;;26.70;32.30;;;;;;5064509;28;20038;-60
2024/03/14 10:05:55;;;;;;;;;;;26.70;32.30;;;;;;5063135;28;19931;-60
2024/03/14 10:08:22;;;;;;;;;;;26.70;32.20;;;;;;5064632;28;19928;-59
2024/03/14 10:10:50;;;;;;;;;;;26.70;32.20;;;;;;5063307;28;20016;-60
2024/03/14 10:13:25;;;;;;;;;;;26.70;32.00;;;;;;5060864;28;19925;-61
2024/03/14 10:15:54;;;;;;;;;;;26.70;32.20;;;;;;5061963;28;19937;-59
2024/03/14 10:18:26;;;;;;;;;;;26.70;32.20;;;;;;5063720;28;19975;-60
2024/03/14 10:20:55;;;;;;;;;;;26.70;32.30;;;;;;5059502;28;19928;-60
2024/03/14 10:23:22;;;;;;;;;;;26.70;32.30;;;;;;5063935;28;19924;-59
2024/03/14 10:25:53;;;;;;;;;;;26.70;32.40;;;;;;5066600;28;19939;-60
2024/03/14 10:28:28;;;;;;;;;;;26.70;32.50;;;;;;5065929;28;19929;-61
2024/03/14 10:31:01;;;;;;;;;;;26.60;32.40;;;;;;5065973;28;20015;-60
2024/03/14 10:33:28;;;;;;;;;;;26.60;32.40;;;;;;5057193;28;19932;-59
2024/03/14 10:35:57;;;;;;;;;;;26.60;32.40;;;;;;5061004;28;19932;-60
2024/03/14 10:38:25;;;;;;;;;;;26.60;32.30;;;;;;5057045;28;19935;-60
2024/03/14 10:40:57;;;;;;;;;;;26.60;32.30;;;;;;5062625;28;19932;-59
2024/03/14 10:43:31;;;;;;;;;;;26.60;32.20;;;;;;5067085;28;20012;-60
2024/03/14 10:45:58;;;;;;;;;;;26.60;32.10;;;;;;5069022;28;19929;-60
2024/03/14 10:48:26;;;;;;;;;;;26.60;32.10;;;;;;5063123;28;19932;-61
2024/03/14 10:50:57;;;;;;;;;;;26.50;32.10;;;;;;5061522;28;20077;-60
2024/03/14 10:53:24;;;;;;;;;;;26.60;32.20;;;;;;5065346;28;20007;-60
2024/03/14 10:55:52;;;;;;;;;;;26.50;32.20;;;;;;5059934;28;19964;-61
2024/03/14 10:58:21;;;;;;;;;;;26.50;32.30;;;;;;5062597;28;19981;-62
2024/03/14 11:00:49;;;;;;;;;;;26.60;32.40;;;;;;5065831;28;19925;-60
2024/03/14 11:03:20;;;;;;;;;;;26.60;32.40;;;;;;5076008;28;19931;-63
2024/03/14 11:05:50;;;;;;;;;;;26.60;32.30;;;;;;5058574;28;20012;-63
2024/03/14 11:08:21;;;;;;;;;;;26.60;32.20;;;;;;5064079;28;19924;-63
2024/03/14 11:10:48;;;;;;;;;;;26.60;32.40;;;;;;5068579;28;20263;-64
2024/03/14 11:13:17;;;;;;;;;;;26.60;32.50;;;;;;5052727;28;19932;-64
2024/03/14 11:15:46;;;;;;;;;;;26.60;32.60;;;;;;5065354;28;20019;-64
2024/03/14 11:18:16;;;;;;;;;;;26.60;32.60;;;;;;5065759;28;20034;-64
2024/03/14 11:20:47;;;;;;;;;;;26.60;32.40;;;;;;5065424;28;19925;-64
2024/03/14 11:23:18;;;;;;;;;;;26.60;32.40;;;;;;5060073;28;20271;-64
2024/03/14 11:25:47;;;;;;;;;;;26.60;32.40;;;;;;5061453;28;19936;-64
2024/03/14 11:28:15;;;;;;;;;;;26.60;32.40;;;;;;5058714;28;19932;-64
2024/03/14 11:30:50;;;;;;;;;;;26.60;32.40;;;;;;5061780;28;19929;-63
2024/03/14 11:33:18;;;;;;;;;;;26.60;32.50;;;;;;5059798;28;19924;-63
2024/03/14 11:35:47;;;;;;;;;;;26.50;32.60;;;;;;5060520;28;19932;-63
2024/03/14 11:38:23;;;;;;;;;;;26.60;32.80;;;;;;5065259;28;20365;-63
2024/03/14 11:40:53;;;;;;;;;;;26.50;32.90;;;;;;5059041;28;20354;-63
2024/03/14 11:43:24;;;;;;;;;;;26.50;33.00;;;;;;5064754;28;20463;-64
2024/03/14 11:45:58;;;;;;;;;;;26.50;33.10;;;;;;5061709;28;19931;-63
2024/03/14 11:48:29;;;;;;;;;;;26.50;33.10;;;;;;5059516;28;19936;-64
2024/03/14 11:51:04;;;;;;;;;;;26.50;33.30;;;;;;5058564;28;19929;-64
2024/03/14 11:53:34;;;;;;;;;;;26.50;33.20;;;;;;5056081;28;19932;-63
2024/03/14 11:56:04;;;;;;;;;;;26.40;33.20;;;;;;5055669;28;19925;-65
2024/03/14 11:58:44;;;;;;;;;;;26.40;33.30;;;;;;5059430;28;20398;-64
2024/03/14 12:01:13;;;;;;;;;;;26.40;33.20;;;;;;5061906;28;19939;-64
2024/03/14 12:03:51;;;;;;;;;;;26.30;33.20;;;;;;5060908;28;19932;-64
2024/03/14 12:06:18;;;;;;;;;;;26.30;33.20;;;;;;5062579;28;19933;-64
2024/03/14 12:08:47;;;;;;;;;;;26.30;33.10;;;;;;5064625;28;19929;-64
2024/03/14 12:11:15;;;;;;;;;;;26.30;33.20;;;;;;5060819;28;19932;-67
2024/03/14 12:13:47;;;;;;;;;;;26.30;33.30;;;;;;5061796;28;20396;-61
2024/03/14 12:16:14;;;;;;;;;;;26.30;33.40;;;;;;5056423;28;19932;-63
2024/03/14 12:18:46;;;;;;;;;;;26.30;33.60;;;;;;5053602;28;19925;-63
2024/03/14 12:21:14;;;;;;;;;;;26.30;33.60;;;;;;5064173;28;19997;-63
2024/03/14 12:23:52;;;;;;;;;;;26.30;33.70;;;;;;5067855;28;20394;-62
2024/03/14 12:26:19;;;;;;;;;;;26.30;33.60;;;;;;5063435;28;20408;-61
2024/03/14 12:28:48;;;;;;;;;;;26.30;33.40;;;;;;5061505;28;19924;-64
2024/03/14 12:31:17;;;;;;;;;;;26.30;33.30;;;;;;5063074;28;20431;-64
2024/03/14 12:33:44;;;;;;;;;;;26.30;33.10;;;;;;5059700;28;19978;-64
2024/03/14 12:36:16;;;;;;;;;;;26.30;33.20;;;;;;5065872;28;20444;-65
2024/03/14 12:38:48;;;;;;;;;;;26.30;33.10;;;;;;5065525;28;19936;-64
2024/03/14 12:41:15;;;;;;;;;;;26.30;33.00;;;;;;5064133;28;19932;-66
2024/03/14 12:43:42;;;;;;;;;;;26.30;32.90;;;;;;5066032;28;20317;-63
2024/03/14 12:46:10;;;;;;;;;;;26.30;32.80;;;;;;5068458;28;19948;-65
2024/03/14 12:48:37;;;;;;;;;;;26.30;32.60;;;;;;5066334;28;19964;-64
2024/03/14 12:51:16;;;;;;;;;;;26.40;32.50;;;;;;5070400;28;20385;-62
2024/03/14 12:53:52;;;;;;;;;;;26.40;32.50;;;;;;5068298;28;20003;-62
2024/03/14 12:56:20;;;;;;;;;;;26.40;32.60;;;;;;5070031;28;20416;-63
2024/03/14 12:58:51;;;;;;;;;;;26.40;32.60;;;;;;5061840;28;19933;-58
2024/03/14 13:01:18;;;;;;;;;;;26.40;30.80;;;;;;5062589;28;20313;-59
2024/03/14 13:03:45;;;;;;;;;;;26.30;30.60;;;;;;5064060;28;19925;-60
2024/03/14 13:06:22;;;;;;;;;;;26.20;31.20;;;;;;5062444;28;19924;-59
2024/03/14 13:09:04;;;;;;;;;;;26.20;31.80;;;;;;5065440;28;20469;-60
2024/03/14 13:11:32;;;;;;;;;;;26.20;32.10;;;;;;5070082;28;19925;-61
2024/03/14 13:14:08;;;;;;;;;;;26.20;32.30;;;;;;5066688;28;19994;-60
2024/03/14 13:16:35;;;;;;;;;;;26.20;32.30;;;;;;5071660;28;21909;-60
2024/03/14 13:19:02;;;;;;;;;;;26.30;32.50;;;;;;5066459;28;19924;-59
2024/03/14 13:21:42;;;;;;;;;;;26.30;32.50;;;;;;5064370;28;19935;-61
2024/03/14 13:24:09;;;;;;;;;;;26.30;32.60;;;;;;5066585;28;19935;-60
2024/03/14 13:26:36;;;;;;;;;;;26.30;33.10;;;;;;5067528;28;20379;-60
2024/03/14 13:29:03;;;;;;;;;;;26.30;32.60;;;;;;5063975;28;20390;-61
2024/03/14 13:31:30;;;;;;;;;;;26.30;32.70;;;;;;5062670;28;19971;-61
2024/03/14 13:33:59;;;;;;;;;;;26.40;32.60;;;;;;5067748;28;20347;-61
2024/03/14 13:36:26;;;;;;;;;;;26.40;32.50;;;;;;5058324;28;19929;-60
2024/03/14 13:38:56;;;;;;;;;;;26.40;32.50;;;;;;5064281;28;20221;-60
2024/03/14 13:41:29;;;;;;;;;;;26.40;32.40;;;;;;5058147;28;19963;-60
2024/03/14 13:43:56;;;;;;;;;;;26.40;32.40;;;;;;5058589;28;20019;-61
2024/03/14 13:46:31;;;;;;;;;;;26.50;32.40;;;;;;5057840;28;21397;-62
2024/03/14 13:49:05;;;;;;;;;;;26.50;32.40;;;;;;5059523;28;19968;-62
2024/03/14 13:51:32;;;;;;;;;;;26.50;32.50;;;;;;5057971;28;20318;-64
2024/03/14 13:54:01;;;;;;;;;;;26.50;32.50;;;;;;5058326;28;20382;-62
2024/03/14 13:56:28;;;;;;;;;;;26.50;32.50;;;;;;5060368;28;19924;-67
2024/03/14 13:59:01;;;;;;;;;;;26.40;32.40;;;;;;5062313;28;19924;-65
2024/03/14 14:01:32;;;;;;;;;;;26.40;32.40;;;;;;5068420;28;19936;-64
2024/03/14 14:04:02;;;;;;;;;;;26.40;32.50;;;;;;5071172;28;19929;-62
2024/03/14 14:06:29;;;;;;;;;;;26.40;32.60;;;;;;5067491;28;19924;-63
2024/03/14 14:08:56;;;;;;;;;;;26.40;32.70;;;;;;5072680;28;19924;-62
2024/03/14 14:11:25;;;;;;;;;;;26.40;32.70;;;;;;5071969;28;19975;-63
2024/03/14 14:13:53;;;;;;;;;;;26.30;32.50;;;;;;5073861;28;20425;-62
2024/03/14 14:16:20;;;;;;;;;;;26.30;32.50;;;;;;5072493;28;19971;-62
2024/03/14 14:18:47;;;;;;;;;;;26.30;32.40;;;;;;5073694;28;19968;-61
2024/03/14 14:21:14;;;;;;;;;;;26.30;32.40;;;;;;5073664;28;19930;-61
2024/03/14 14:23:41;;;;;;;;;;;26.30;32.40;;;;;;5092239;28;20313;-62
2024/03/14 14:26:08;;;;;;;;;;;26.20;32.30;;;;;;5093921;28;19924;-62